This is the latest recevied weather packets stored in our database for station/object OE-11073. If no packets are shown the sender has not sent any weather packets the latest 10 day(s).
| Time | Temp. | Humidity | Pressure | Rain* | Wind** | Luminosity | Snow |
|---|---|---|---|---|---|---|---|
| 1787774110 | 17.22° C | 85% | - | 0 mm | - | 0 W/m² | - |
| 1787773283 | 16.67° C | 86% | - | 0 mm | - | 0 W/m² | - |
| 1787772910 | 16.67° C | 86% | - | 0 mm | - | 0 W/m² | - |
| 1787772310 | 17.78° C | 82% | - | 0 mm | - | 0 W/m² | - |
| 1787771483 | 17.78° C | 84% | - | 0 mm | - | 0 W/m² | - |
| 1787771109 | 17.78° C | 85% | - | 0 mm | - | 0 W/m² | - |
| 1787770510 | 17.78° C | 84% | - | 0 mm | - | 0 W/m² | - |
| 1787769683 | 18.33° C | 84% | - | 0 mm | - | 0 W/m² | - |
| 1787769310 | 17.78° C | 85% | - | 0 mm | - | 0 W/m² | - |
| 1787768710 | 18.89° C | 82% | - | 0 mm | - | 0 W/m² | - |
| 1787767883 | 19.44° C | 78% | - | 0 mm | - | 8 W/m² | - |
| 1787767510 | 20° C | 79% | - | 0 mm | - | 15 W/m² | - |
| 1787766910 | 20.56° C | 77% | - | 0 mm | - | 23 W/m² | - |
| 1787766083 | 21.67° C | 72% | - | 0 mm | - | 46 W/m² | - |
| 1787765710 | 22.22° C | 71% | - | 0 mm | - | 54 W/m² | - |
| 1787765109 | 22.78° C | 69% | - | 0 mm | - | 107 W/m² | - |
| 1787764283 | 23.33° C | 69% | - | 0 mm | - | 122 W/m² | - |
| 1787763910 | 23.89° C | 71% | - | 0 mm | - | 184 W/m² | - |
| 1787763309 | 23.33° C | 69% | - | 0 mm | - | 176 W/m² | - |
| 1787762483 | 23.89° C | 64% | - | 0 mm | - | 138 W/m² | - |
| 1787762110 | 23.89° C | 68% | - | 0 mm | - | 130 W/m² | - |
| 1787761510 | 24.44° C | 60% | - | 0 mm | - | 176 W/m² | - |
| 1787760683 | 24.44° C | 59% | - | 0 mm | - | 191 W/m² | - |
| 1787760310 | 25° C | 54% | - | 0 mm | - | 245 W/m² | - |
| 1787759710 | 25° C | 58% | - | 0 mm | - | 268 W/m² | - |
* Rain latest hour (hover to see other rain measurements)
** Current wind speed in m/s (hover to see current wind gust speed)